FAEL

Ben Schoeman Airport

East London, South Africa
METAR FAEL 260400Z 28007KT 9999 SCT045 15/11 Q1022
Observed Flight Rules
May-26 @ 04:00 UTC (24 minutes ago) Visual Flight Rules
Wind Visibility Clouds
280° at 7 knots 10,000+ meters
  • Scattered at 4,500' AGL
Temperatures Readings
Current 15°C / 59°F
Dewpoint 11°C / 52°F
Humidity 77%
Altimeter 30.18" Hg
Pressure 1022 hPa
Elevation 125
METAR FAEL 260400Z 28007KT 9999 SCT045 15/11 Q1022
Observed Flight Rules
May-26 @ 04:00 UTC
(24 minutes ago)
VFR
Wind Visibility
280° at 7 knots 10,000+ meters
Clouds
  • Scattered at 4,500' AGL
Temperature Dewpoint
15°C / 59°F 11°C / 52°F
Humidity Altimeter Pressure
77% 30.18" Hg 1022 hPa